Time;durP1;ratioP1;P1;durP2;ratioP2;P2;SDS_P1;SDS_P2;PMS_P1;PMS_P2;Temp;Humidity;BMP_temperature;BMP_pressure;BME280_temperature;BME280_humidity;BME280_pressure;Samples;Min_cycle;Max_cycle;Signal;HPM_P1;HPM_P2
2022/01/08 14:01:49;;;;;;;4.78;0.70;;;;;;;1.41;100.00;94542.28;5128416;27;20356;-73
2022/01/08 14:04:16;;;;;;;0.70;0.60;;;;;;;1.43;100.00;94536.78;5128581;27;20649;-73
2022/01/08 14:06:44;;;;;;;0.95;0.50;;;;;;;1.45;100.00;94526.78;5128229;27;20028;-73
2022/01/08 14:09:17;;;;;;;0.77;0.70;;;;;;;1.44;100.00;94514.63;5111272;27;20055;-73
2022/01/08 14:11:42;;;;;;;0.95;0.50;;;;;;;1.40;100.00;94500.25;5118016;27;20126;-73
2022/01/08 14:14:17;;;;;;;1.90;0.93;;;;;;;1.42;100.00;94512.22;5127888;27;20095;-73
2022/01/08 14:16:44;;;;;;;1.77;0.60;;;;;;;1.39;100.00;94488.09;5126892;27;20061;-73
2022/01/08 14:19:12;;;;;;;0.85;0.70;;;;;;;1.40;100.00;94481.78;5125676;27;20212;-73
2022/01/08 14:21:40;;;;;;;1.08;0.80;;;;;;;1.39;100.00;94477.53;5126141;27;20031;-73
2022/01/08 14:24:16;;;;;;;1.02;0.50;;;;;;;1.38;100.00;94471.44;5127983;27;20023;-74
2022/01/08 14:27:07;;;;;;;2.13;0.50;;;;;;;1.41;100.00;94471.03;5127807;27;20019;-74
2022/01/08 14:29:36;;;;;;;1.20;0.50;;;;;;;1.38;100.00;94470.66;5117598;27;20561;-71
2022/01/08 14:32:05;;;;;;;3.50;0.70;;;;;;;1.41;100.00;94468.38;5128106;27;20442;-72
2022/01/08 14:34:31;;;;;;;0.90;0.50;;;;;;;1.41;100.00;94465.75;5121662;27;20020;-72
2022/01/08 14:37:02;;;;;;;1.20;0.50;;;;;;;1.41;100.00;94463.13;5124558;27;20031;-72
2022/01/08 14:39:30;;;;;;;2.25;0.63;;;;;;;1.44;100.00;94464.50;5125783;27;20027;-72
2022/01/08 14:41:57;;;;;;;1.15;0.68;;;;;;;1.47;100.00;94444.75;5124000;27;20182;-72
2022/01/08 14:44:33;;;;;;;1.05;0.70;;;;;;;1.47;100.00;94455.31;5125358;27;20023;-72
2022/01/08 14:47:02;;;;;;;1.45;0.60;;;;;;;1.47;100.00;94453.47;5125568;27;20023;-71
2022/01/08 14:49:33;;;;;;;1.35;0.68;;;;;;;1.48;100.00;94447.16;5125297;27;20023;-72
2022/01/08 14:51:59;;;;;;;0.90;0.70;;;;;;;1.47;100.00;94450.03;5125605;27;20031;-72
2022/01/08 14:54:26;;;;;;;1.58;0.65;;;;;;;1.47;100.00;94431.56;5125605;27;20046;-72
2022/01/08 14:56:55;;;;;;;2.40;0.85;;;;;;;1.47;100.00;94429.72;5125125;27;20023;-72
2022/01/08 14:59:23;;;;;;;1.35;0.80;;;;;;;1.44;100.00;94409.88;5126078;27;20058;-72
2022/01/08 15:01:48;;;;;;;0.93;0.75;;;;;;;1.42;100.00;94411.94;5126775;27;20023;-72
2022/01/08 15:04:14;;;;;;;1.38;0.70;;;;;;;1.40;100.00;94407.91;5121896;27;20535;-72
2022/01/08 15:06:39;;;;;;;1.30;0.80;;;;;;;1.36;100.00;94401.47;5127192;27;20055;-71
2022/01/08 15:09:05;;;;;;;0.70;0.57;;;;;;;1.36;100.00;94377.72;5121171;27;20031;-72
2022/01/08 15:11:30;;;;;;;0.68;0.60;;;;;;;1.32;100.00;94385.28;5112726;27;20466;-70
2022/01/08 15:13:58;;;;;;;1.05;0.73;;;;;;;1.27;100.00;94369.31;5111322;28;20024;-71
2022/01/08 15:16:24;;;;;;;1.83;1.00;;;;;;;1.19;100.00;94374.91;5103793;28;20031;-71
2022/01/08 15:18:49;;;;;;;0.85;0.60;;;;;;;1.13;100.00;94365.25;5106254;28;20046;-73
2022/01/08 15:21:15;;;;;;;1.25;0.70;;;;;;;1.08;100.00;94362.47;5111757;28;20109;-73
2022/01/08 15:23:42;;;;;;;1.88;1.33;;;;;;;0.99;100.00;94359.38;5111249;27;20063;-72
2022/01/08 15:26:08;;;;;;;1.98;0.80;;;;;;;0.86;100.00;94349.78;5111459;28;20120;-72
2022/01/08 15:28:33;;;;;;;1.13;0.60;;;;;;;0.77;100.00;94359.03;5111715;27;20049;-72
2022/01/08 15:30:59;;;;;;;3.42;0.60;;;;;;;0.67;100.00;94353.50;5092919;22;20064;-71
2022/01/08 15:33:25;;;;;;;2.38;0.68;;;;;;;0.53;100.00;94358.09;5070913;28;20473;-69
2022/01/08 15:35:50;;;;;;;1.38;0.63;;;;;;;0.42;100.00;94363.28;5070051;28;20024;-69
2022/01/08 15:38:19;;;;;;;1.75;0.75;;;;;;;0.31;100.00;94361.38;5084802;28;20027;-67
2022/01/08 15:40:44;;;;;;;1.75;0.90;;;;;;;0.23;100.00;94371.19;5057211;28;20705;-68
2022/01/08 15:43:10;;;;;;;1.15;0.80;;;;;;;0.17;100.00;94377.31;5053269;28;20083;-68
2022/01/08 15:45:38;;;;;;;0.80;0.80;;;;;;;0.14;100.00;94369.88;5051368;28;20024;-68
2022/01/08 15:48:05;;;;;;;1.30;0.90;;;;;;;0.10;100.00;94376.56;5050682;28;20017;-67
2022/01/08 15:50:31;;;;;;;1.90;0.80;;;;;;;0.00;100.00;94378.94;5052911;28;20024;-68
2022/01/08 15:52:58;;;;;;;0.90;0.70;;;;;;;-0.10;100.00;94383.88;5052055;28;20092;-67
2022/01/08 15:55:25;;;;;;;1.15;0.80;;;;;;;-0.22;100.00;94383.75;5051769;28;20112;-68
2022/01/08 15:57:50;;;;;;;1.02;0.93;;;;;;;-0.33;100.00;94380.00;5065484;28;20047;-67
2022/01/08 16:00:16;;;;;;;1.77;0.63;;;;;;;-0.42;100.00;94385.75;5067254;28;20013;-67
2022/01/08 16:02:45;;;;;;;2.55;0.80;;;;;;;-0.54;100.00;94384.81;5067653;28;20082;-67
2022/01/08 16:05:11;;;;;;;1.60;1.10;;;;;;;-0.56;100.00;94389.47;5051696;28;20506;-65
2022/01/08 16:07:36;;;;;;;1.50;1.00;;;;;;;-0.55;100.00;94397.16;5065032;28;20060;-67
2022/01/08 16:10:02;;;;;;;2.63;1.40;;;;;;;-0.44;100.00;94407.00;5051151;28;20426;-69
2022/01/08 16:12:28;;;;;;;2.08;1.42;;;;;;;-0.34;100.00;94415.22;5051746;28;20111;-68
2022/01/08 16:14:53;;;;;;;2.30;1.42;;;;;;;-0.28;100.00;94407.50;5051813;28;20108;-68
2022/01/08 16:17:18;;;;;;;2.75;1.70;;;;;;;-0.28;100.00;94426.72;5080093;28;20036;-68
2022/01/08 16:19:44;;;;;;;2.92;1.83;;;;;;;-0.32;100.00;94405.31;5066886;28;20059;-68
2022/01/08 16:22:09;;;;;;;2.90;1.55;;;;;;;-0.35;100.00;94416.22;5050053;28;20029;-68
2022/01/08 16:24:35;;;;;;;2.13;1.70;;;;;;;-0.42;100.00;94412.06;5050600;28;20033;-68
2022/01/08 16:27:04;;;;;;;4.13;1.60;;;;;;;-0.49;100.00;94422.63;5064756;28;20100;-67
2022/01/08 16:29:30;;;;;;;2.08;1.70;;;;;;;-0.52;100.00;94430.94;5051213;28;20523;-68
2022/01/08 16:31:55;;;;;;;2.92;1.65;;;;;;;-0.52;100.00;94427.50;5066748;28;20033;-68
2022/01/08 16:34:21;;;;;;;2.83;1.85;;;;;;;-0.51;100.00;94427.28;5051341;28;20120;-68
2022/01/08 16:36:46;;;;;;;5.22;2.78;;;;;;;-0.46;100.00;94431.91;5068970;28;20027;-67
2022/01/08 16:39:14;;;;;;;4.30;2.50;;;;;;;-0.42;100.00;94430.47;5061751;28;20032;-68
2022/01/08 16:41:44;;;;;;;2.90;1.83;;;;;;;-0.40;100.00;94418.72;5050832;28;20055;-66
2022/01/08 16:44:13;;;;;;;2.38;1.83;;;;;;;-0.36;100.00;94412.00;5051421;28;20207;-68
2022/01/08 16:46:40;;;;;;;2.83;1.80;;;;;;;-0.33;100.00;94424.75;5054947;28;20028;-68
2022/01/08 16:49:08;;;;;;;2.67;1.90;;;;;;;-0.30;100.00;94412.97;5060266;28;20079;-67
2022/01/08 16:51:34;;;;;;;4.97;2.90;;;;;;;-0.27;100.00;94419.63;5050702;28;20060;-68
2022/01/08 16:54:00;;;;;;;9.48;3.63;;;;;;;-0.24;100.00;94417.38;5051357;28;20495;-68
2022/01/08 16:56:28;;;;;;;5.07;2.63;;;;;;;-0.23;100.00;94403.19;5070402;28;20051;-68
2022/01/08 16:58:54;;;;;;;3.33;2.63;;;;;;;-0.22;100.00;94414.53;5050907;28;20452;-67
2022/01/08 17:01:20;;;;;;;3.03;2.20;;;;;;;-0.22;100.00;94417.97;5049762;28;20409;-68
2022/01/08 17:03:45;;;;;;;3.97;2.03;;;;;;;-0.21;100.00;94424.06;5065165;28;20024;-68
2022/01/08 17:06:16;;;;;;;3.05;2.10;;;;;;;-0.22;100.00;94425.84;5054717;28;20043;-68
2022/01/08 17:08:46;;;;;;;3.95;2.10;;;;;;;-0.25;100.00;94407.06;5057876;28;20175;-68
2022/01/08 17:11:13;;;;;;;2.97;1.77;;;;;;;-0.33;100.00;94410.75;5049453;28;20036;-66
2022/01/08 17:13:39;;;;;;;5.25;2.60;;;;;;;-0.38;100.00;94408.78;5046563;28;20450;-68
2022/01/08 17:16:04;;;;;;;3.53;2.40;;;;;;;-0.40;100.00;94413.44;5049120;28;20287;-68
2022/01/08 17:18:30;;;;;;;5.05;2.63;;;;;;;-0.45;100.00;94401.94;5064661;28;20396;-66
2022/01/08 17:20:56;;;;;;;3.72;2.30;;;;;;;-0.48;100.00;94395.28;5064765;28;20313;-68
2022/01/08 17:23:25;;;;;;;4.03;2.53;;;;;;;-0.52;100.00;94393.31;5062068;28;20082;-68
2022/01/08 17:25:50;;;;;;;3.15;1.75;;;;;;;-0.57;100.00;94379.97;5056113;28;20433;-67
2022/01/08 17:28:17;;;;;;;3.92;1.77;;;;;;;-0.63;100.00;94382.44;5057219;28;20295;-66
2022/01/08 17:30:43;;;;;;;2.72;1.80;;;;;;;-0.70;100.00;94373.78;5050102;28;20534;-67
2022/01/08 17:33:09;;;;;;;3.95;2.00;;;;;;;-0.76;100.00;94369.41;5046387;28;20025;-67
2022/01/08 17:35:38;;;;;;;3.17;2.17;;;;;;;-0.80;100.00;94380.53;5047842;28;20074;-67
2022/01/08 17:38:03;;;;;;;2.90;2.10;;;;;;;-0.83;100.00;94366.00;5078041;28;20024;-67
2022/01/08 17:40:29;;;;;;;2.70;2.03;;;;;;;-0.83;100.00;94362.56;5062995;28;20234;-66
2022/01/08 17:42:54;;;;;;;3.15;1.90;;;;;;;-0.75;100.00;94351.78;5048893;28;20502;-68
2022/01/08 17:45:20;;;;;;;3.30;2.08;;;;;;;-0.65;100.00;94354.75;5050301;28;20036;-66
2022/01/08 17:47:47;;;;;;;4.10;2.22;;;;;;;-0.54;100.00;94353.25;5064976;28;20234;-68
2022/01/08 17:50:13;;;;;;;2.55;1.90;;;;;;;-0.40;100.00;94346.88;5043792;28;20025;-68
2022/01/08 17:52:39;;;;;;;3.38;1.92;;;;;;;-0.33;100.00;94337.09;5043479;28;20482;-67
2022/01/08 17:55:05;;;;;;;2.80;1.80;;;;;;;-0.17;100.00;94343.63;5046625;28;20016;-68
2022/01/08 17:57:33;;;;;;;4.57;2.20;;;;;;;-0.08;100.00;94324.72;5069036;28;20057;-67
2022/01/08 17:59:59;;;;;;;2.55;1.80;;;;;;;-0.01;100.00;94317.53;5057782;28;20029;-65
2022/01/08 18:02:25;;;;;;;6.68;1.92;;;;;;;0.07;100.00;94311.19;5056904;28;20395;-67
2022/01/08 18:04:51;;;;;;;2.50;1.55;;;;;;;0.13;100.00;94307.69;5069633;28;20032;-65
2022/01/08 18:07:18;;;;;;;2.47;1.80;;;;;;;0.18;100.00;94301.75;5056233;28;20087;-66
2022/01/08 18:09:44;;;;;;;3.45;2.00;;;;;;;0.19;100.00;94298.91;5055794;28;20383;-67
2022/01/08 18:12:10;;;;;;;4.43;2.00;;;;;;;0.22;100.00;94295.06;5053660;28;20021;-66
2022/01/08 18:14:37;;;;;;;4.28;2.25;;;;;;;0.21;100.00;94272.34;5070342;28;20177;-67
2022/01/08 18:17:03;;;;;;;8.57;3.03;;;;;;;0.23;100.00;94259.78;5072697;28;20021;-67
2022/01/08 18:19:29;;;;;;;4.75;2.63;;;;;;;0.24;100.00;94249.03;5058819;28;20106;-67
2022/01/08 18:21:55;;;;;;;3.20;1.80;;;;;;;0.29;100.00;94245.72;5066880;28;20039;-67
2022/01/08 18:24:22;;;;;;;6.03;2.40;;;;;;;0.33;100.00;94246.09;5058768;28;20116;-66
2022/01/08 18:26:48;;;;;;;4.22;1.52;;;;;;;0.38;100.00;94240.94;5072011;28;20029;-67
2022/01/08 18:29:16;;;;;;;4.70;1.80;;;;;;;0.42;100.00;94232.38;5057919;28;20040;-65
2022/01/08 18:31:41;;;;;;;2.13;1.50;;;;;;;0.49;100.00;94233.09;5056937;28;20029;-66
2022/01/08 18:34:07;;;;;;;2.75;1.50;;;;;;;0.53;100.00;94236.88;5052173;28;20510;-67
2022/01/08 18:36:32;;;;;;;3.28;1.45;;;;;;;0.57;100.00;94229.34;5053279;28;20064;-67
2022/01/08 18:38:57;;;;;;;1.98;1.58;;;;;;;0.58;100.00;94212.50;5049070;28;20040;-67
2022/01/08 18:41:26;;;;;;;2.53;1.55;;;;;;;0.58;100.00;94194.88;5048576;28;20074;-67
2022/01/08 18:43:52;;;;;;;2.70;1.33;;;;;;;0.56;100.00;94185.59;5064845;28;20078;-67
2022/01/08 18:46:17;;;;;;;2.90;1.52;;;;;;;0.52;100.00;94169.41;5049405;28;20024;-65
2022/01/08 18:48:42;;;;;;;1.90;1.40;;;;;;;0.48;100.00;94172.72;5053357;28;20104;-67
2022/01/08 18:51:08;;;;;;;2.58;1.70;;;;;;;0.43;100.00;94167.31;5052153;28;20021;-67
2022/01/08 18:53:33;;;;;;;2.33;1.50;;;;;;;0.39;100.00;94156.44;5051876;28;20029;-67
2022/01/08 18:56:01;;;;;;;3.40;1.48;;;;;;;0.33;100.00;94149.44;5053155;28;20025;-67
2022/01/08 18:58:26;;;;;;;3.22;1.73;;;;;;;0.34;100.00;94151.03;5068568;28;20076;-67
2022/01/08 19:00:54;;;;;;;2.50;1.55;;;;;;;0.33;100.00;94143.38;5068267;28;20057;-66
2022/01/08 19:03:24;;;;;;;4.40;1.63;;;;;;;0.34;100.00;94137.06;5066761;28;20041;-67
2022/01/08 19:05:50;;;;;;;3.50;1.77;;;;;;;0.35;100.00;94136.03;5046925;28;20490;-67
2022/01/08 19:08:15;;;;;;;4.97;2.45;;;;;;;0.34;100.00;94124.72;5053005;28;20036;-66
2022/01/08 19:10:40;;;;;;;6.03;3.17;;;;;;;0.34;100.00;94118.63;5068118;28;20025;-66
2022/01/08 19:13:06;;;;;;;2.28;1.63;;;;;;;0.33;100.00;94122.31;5076195;28;20081;-67
2022/01/08 19:15:32;;;;;;;3.60;1.58;;;;;;;0.32;100.00;94105.66;5073964;28;20087;-66
2022/01/08 19:17:57;;;;;;;3.90;1.70;;;;;;;0.33;100.00;94098.59;5053472;28;20021;-67
2022/01/08 19:20:22;;;;;;;2.83;1.80;;;;;;;0.32;100.00;94091.69;5052694;28;20021;-66
2022/01/08 19:22:53;;;;;;;4.95;2.03;;;;;;;0.28;100.00;94088.72;5056295;28;20139;-64
2022/01/08 19:25:22;;;;;;;4.95;2.88;;;;;;;0.28;100.00;94072.91;5048930;28;20071;-67
2022/01/08 19:27:47;;;;;;;3.83;2.47;;;;;;;0.26;100.00;94074.97;5067542;28;20037;-67
2022/01/08 19:30:15;;;;;;;3.92;1.83;;;;;;;0.26;100.00;94067.88;5053227;28;20283;-67
2022/01/08 19:32:41;;;;;;;2.70;2.08;;;;;;;0.28;100.00;94062.38;5047849;28;20074;-67
2022/01/08 19:35:07;;;;;;;3.25;1.33;;;;;;;0.28;100.00;94057.91;5051350;28;20471;-67
2022/01/08 19:37:33;;;;;;;3.60;1.70;;;;;;;0.31;100.00;94045.31;5061832;28;20028;-66
2022/01/08 19:39:59;;;;;;;3.03;2.20;;;;;;;0.32;100.00;94034.56;5055493;28;20059;-66
2022/01/08 19:42:25;;;;;;;12.13;7.93;;;;;;;0.34;100.00;94029.09;5052875;28;20068;-67
2022/01/08 19:44:51;;;;;;;5.00;3.72;;;;;;;0.33;100.00;94016.94;5052959;28;20384;-66
2022/01/08 19:47:18;;;;;;;4.30;2.45;;;;;;;0.33;100.00;94014.31;5067996;28;20029;-67
2022/01/08 19:49:44;;;;;;;4.05;2.17;;;;;;;0.35;100.00;93999.06;5052561;28;20540;-66
2022/01/08 19:52:11;;;;;;;3.08;1.65;;;;;;;0.38;100.00;93993.34;5061835;28;20035;-66
2022/01/08 19:54:37;;;;;;;1.70;1.25;;;;;;;0.41;100.00;93987.63;5055697;28;20441;-65
2022/01/08 19:57:03;;;;;;;2.63;1.55;;;;;;;0.40;100.00;93976.28;5051595;28;20541;-66
2022/01/08 19:59:29;;;;;;;2.92;1.38;;;;;;;0.36;100.00;93964.59;5051420;28;20028;-66
2022/01/08 20:01:54;;;;;;;1.83;1.48;;;;;;;0.31;100.00;93961.03;5051946;28;20032;-66
2022/01/08 20:04:22;;;;;;;2.58;1.30;;;;;;;0.32;100.00;93949.47;5052029;28;20467;-67
2022/01/08 20:06:48;;;;;;;2.38;1.45;;;;;;;0.33;100.00;93940.56;5077355;28;20043;-67
2022/01/08 20:09:14;;;;;;;1.70;1.20;;;;;;;0.33;100.00;93935.31;5070642;28;20025;-66
